Time;durP1;ratioP1;P1;durP2;ratioP2;P2;SDS_P1;SDS_P2;PMS_P1;PMS_P2;Temp;Humidity;BMP_temperature;BMP_pressure;BME280_temperature;BME280_humidity;BME280_pressure;Samples;Min_cycle;Max_cycle;Signal;HPM_P1;HPM_P2
2021/04/05 00:02:15;;;;;;;28.02;20.10;;;128.20;2252.80;;;;;;4825355;29;20128;-70
2021/04/05 00:04:41;;;;;;;27.15;19.00;;;128.20;2252.80;;;;;;4823504;29;20037;-71
2021/04/05 00:07:06;;;;;;;27.58;18.83;;;128.20;2252.80;;;;;;4841248;29;20030;-71
2021/04/05 00:09:32;;;;;;;27.52;19.33;;;128.20;2252.80;;;;;;4842378;29;20530;-70
2021/04/05 00:11:59;;;;;;;31.58;20.52;;;128.20;2252.80;;;;;;4840822;29;20133;-71
2021/04/05 00:14:26;;;;;;;26.60;17.75;;;128.20;2252.80;;;;;;4840712;29;20369;-71
2021/04/05 00:16:52;;;;;;;26.20;19.55;;;128.20;2252.80;;;;;;4841519;29;20026;-72
2021/04/05 00:19:18;;;;;;;28.73;19.25;;;128.20;2252.80;;;;;;4824152;29;20477;-71
2021/04/05 00:21:44;;;;;;;31.85;19.77;;;128.20;2252.80;;;;;;4840000;29;20546;-70
2021/04/05 00:24:10;;;;;;;29.65;19.17;;;128.20;2252.80;;;;;;4839388;29;20062;-70
2021/04/05 00:26:36;;;;;;;25.60;18.58;;;128.20;2252.80;;;;;;4831540;29;20077;-70
2021/04/05 00:29:02;;;;;;;28.63;18.52;;;128.20;2252.80;;;;;;4838264;29;20064;-70
2021/04/05 00:31:28;;;;;;;31.75;19.83;;;128.20;2252.80;;;;;;4837738;29;20100;-70
2021/04/05 00:33:54;;;;;;;30.48;20.88;;;128.20;2252.80;;;;;;4840280;29;20030;-70
2021/04/05 00:36:19;;;;;;;28.02;19.17;;;128.20;2252.80;;;;;;4849580;29;20112;-71
2021/04/05 00:38:45;;;;;;;26.48;17.80;;;128.10;2252.80;;;;;;4843876;29;20029;-70
2021/04/05 00:41:14;;;;;;;28.92;19.52;;;128.20;2252.80;;;;;;4840629;29;20029;-70
2021/04/05 00:43:42;;;;;;;28.65;19.92;;;128.20;2252.80;;;;;;4840091;29;20049;-70
2021/04/05 00:46:08;;;;;;;28.17;19.77;;;128.10;2252.80;;;;;;4840909;29;20030;-70
2021/04/05 00:48:35;;;;;;;29.45;18.77;;;128.00;2252.80;;;;;;4826672;29;20590;-70
2021/04/05 00:51:23;;;;;;;30.20;19.73;;;128.10;2252.80;;;;;;4844089;29;20018;-70
2021/04/05 00:53:50;;;;;;;28.92;18.83;;;128.10;2252.80;;;;;;4842903;29;20026;-71
2021/04/05 00:56:20;;;;;;;30.63;20.77;;;128.10;2252.80;;;;;;4843852;29;20038;-71
2021/04/05 00:58:46;;;;;;;30.00;19.35;;;128.10;2252.80;;;;;;4845499;29;20040;-71
2021/04/05 01:01:16;;;;;;;26.42;20.23;;;128.00;2252.80;;;;;;4843612;29;20022;-71
2021/04/05 01:03:44;;;;;;;35.60;18.05;;;128.00;2252.80;;;;;;4828276;29;20033;-71
2021/04/05 01:06:31;;;;;;;29.17;19.48;;;128.00;2252.80;;;;;;4828785;29;20022;-71
2021/04/05 01:08:57;;;;;;;30.08;20.40;;;103.30;2227.20;;;;;;4844670;29;20515;-71
2021/04/05 01:11:26;;;;;;;27.33;20.15;;;103.30;2227.20;;;;;;4827288;29;20045;-72
2021/04/05 01:13:53;;;;;;;33.00;20.00;;;128.00;2252.80;;;;;;4823898;29;20739;-71
2021/04/05 01:16:20;;;;;;;28.80;19.90;;;103.10;2227.20;;;;;;4836865;29;20025;-72
2021/04/05 01:18:45;;;;;;;28.45;20.77;;;103.10;2227.20;;;;;;4861650;29;20029;-72
2021/04/05 01:21:11;;;;;;;31.08;19.92;;;103.10;2227.20;;;;;;4845418;29;20037;-72
2021/04/05 01:23:38;;;;;;;31.67;21.48;;;103.00;2227.20;;;;;;4850602;29;20055;-72
2021/04/05 01:26:04;;;;;;;28.73;19.92;;;103.00;2227.20;;;;;;4826563;29;20376;-72
2021/04/05 01:28:30;;;;;;;24.55;18.52;;;102.90;2227.20;;;;;;4827021;29;20040;-72
2021/04/05 01:30:58;;;;;;;27.50;18.58;;;102.90;2227.20;;;;;;4843464;29;20410;-72
2021/04/05 01:33:29;;;;;;;29.13;22.00;;;102.90;2227.20;;;;;;4843589;29;20418;-72
2021/04/05 01:35:56;;;;;;;28.23;19.20;;;102.90;2227.20;;;;;;4826740;29;20034;-72
2021/04/05 01:38:38;;;;;;;33.17;19.38;;;102.90;2227.20;;;;;;4856544;29;20140;-72
2021/04/05 01:41:25;;;;;;;32.42;20.98;;;102.80;2227.20;;;;;;4843450;29;20033;-71
2021/04/05 01:43:51;;;;;;;32.08;22.00;;;102.80;2227.20;;;;;;4842919;29;20565;-71
2021/04/05 01:46:18;;;;;;;27.15;19.17;;;102.80;2227.20;;;;;;4833991;29;20026;-72
2021/04/05 01:48:45;;;;;;;34.13;19.60;;;102.80;2227.20;;;;;;4825932;29;20045;-71
2021/04/05 01:51:22;;;;;;;30.75;19.38;;;102.80;2227.20;;;;;;4843314;29;20026;-71
2021/04/05 01:53:50;;;;;;;24.45;18.48;;;102.80;2227.20;;;;;;4813547;29;20041;-71
2021/04/05 01:56:17;;;;;;;27.23;19.02;;;102.80;2227.20;;;;;;4842675;29;20033;-71
2021/04/05 01:58:47;;;;;;;30.67;21.23;;;102.90;2227.20;;;;;;4837962;29;20110;-71
2021/04/05 02:01:16;;;;;;;38.63;20.33;;;102.90;2227.20;;;;;;4817422;29;20117;-70
2021/04/05 02:03:42;;;;;;;30.33;21.92;;;103.00;2227.20;;;;;;4842958;29;20026;-70
2021/04/05 02:06:24;;;;;;;30.17;20.23;;;102.90;2227.20;;;;;;4848626;29;20095;-71
2021/04/05 02:08:51;;;;;;;30.55;19.23;;;102.90;2201.60;;;;;;4843274;29;20090;-71
2021/04/05 02:11:19;;;;;;;29.70;19.10;;;102.80;2227.20;;;;;;4842793;29;20030;-70
2021/04/05 02:13:46;;;;;;;31.05;19.48;;;102.70;2227.20;;;;;;4842167;29;20030;-70
2021/04/05 02:16:14;;;;;;;35.78;23.80;;;102.60;2227.20;;;;;;4845573;29;20026;-71
2021/04/05 02:18:40;;;;;;;32.95;20.95;;;102.60;2227.20;;;;;;4844905;29;20021;-72
2021/04/05 02:21:17;;;;;;;31.27;20.30;;;102.50;2227.20;;;;;;4842605;29;20066;-71
2021/04/05 02:23:46;;;;;;;33.13;20.10;;;102.50;2227.20;;;;;;4844453;29;20535;-71
2021/04/05 02:26:15;;;;;;;30.52;20.45;;;102.60;2227.20;;;;;;4841563;29;20083;-70
2021/04/05 02:28:50;;;;;;;34.83;20.55;;;102.50;2227.20;;;;;;4825158;29;20074;-70
2021/04/05 02:31:18;;;;;;;32.83;22.48;;;102.40;2227.20;;;;;;4842217;29;20058;-71
2021/04/05 02:33:49;;;;;;;32.50;20.63;;;102.40;2227.20;;;;;;4842285;29;20030;-71
2021/04/05 02:36:17;;;;;;;35.50;22.48;;;102.40;2227.20;;;;;;4845684;29;20104;-71
2021/04/05 02:38:48;;;;;;;36.97;24.10;;;77.70;2227.20;;;;;;4847975;29;20044;-71
2021/04/05 02:41:17;;;;;;;37.90;22.92;;;77.70;2227.20;;;;;;4842158;29;20065;-71
2021/04/05 02:43:43;;;;;;;37.03;24.55;;;77.70;2227.20;;;;;;4825537;29;20034;-71
2021/04/05 02:46:27;;;;;;;38.95;24.35;;;77.50;2227.20;;;;;;4842102;29;20030;-71
2021/04/05 02:48:56;;;;;;;42.58;25.42;;;77.50;2227.20;;;;;;4840908;29;20022;-70
2021/04/05 02:51:23;;;;;;;43.28;26.52;;;77.50;2227.20;;;;;;4825225;29;20049;-71
2021/04/05 02:53:54;;;;;;;45.13;25.88;;;77.30;2227.20;;;;;;4842058;29;20511;-71
2021/04/05 02:56:21;;;;;;;48.55;27.95;;;77.20;2227.20;;;;;;4841660;29;20037;-71
2021/04/05 02:58:49;;;;;;;44.53;26.85;;;77.00;2227.20;;;;;;4841588;29;20082;-71
2021/04/05 03:01:16;;;;;;;48.83;25.08;;;76.90;2227.20;;;;;;4844551;29;20568;-71
2021/04/05 03:03:44;;;;;;;41.95;24.98;;;76.90;2227.20;;;;;;4841459;29;20503;-71
2021/04/05 03:06:14;;;;;;;33.20;23.67;;;76.80;2227.20;;;;;;4841913;29;20026;-71
2021/04/05 03:08:39;;;;;;;36.47;23.88;;;52.10;2227.20;;;;;;4841342;29;20105;-71
2021/04/05 03:11:06;;;;;;;39.05;24.20;;;52.10;2227.20;;;;;;4824560;29;20175;-70
2021/04/05 03:13:35;;;;;;;34.42;23.75;;;52.10;2227.20;;;;;;4844900;29;20041;-71
2021/04/05 03:16:11;;;;;;;43.33;24.50;;;52.00;2227.20;;;;;;4841746;29;20368;-71
2021/04/05 03:18:38;;;;;;;37.35;22.98;;;52.00;2227.20;;;;;;4844000;29;20053;-70
2021/04/05 03:21:06;;;;;;;33.85;22.30;;;51.90;2227.20;;;;;;4851081;29;20037;-70
2021/04/05 03:23:32;;;;;;;29.95;20.70;;;51.90;2227.20;;;;;;4841536;29;20050;-70
2021/04/05 03:25:58;;;;;;;43.97;23.70;;;52.00;2227.20;;;;;;4824322;29;20063;-72
2021/04/05 03:28:23;;;;;;;36.47;21.85;;;52.10;2227.20;;;;;;4840609;29;20062;-70
2021/04/05 03:31:04;;;;;;;36.45;21.35;;;52.00;2227.20;;;;;;4840854;29;20535;-71
2021/04/05 03:33:42;;;;;;;31.63;21.38;;;52.10;2227.20;;;;;;4825050;29;20396;-70
2021/04/05 03:36:21;;;;;;;35.10;21.30;;;52.10;2227.20;;;;;;4841481;29;20376;-70
2021/04/05 03:38:47;;;;;;;40.30;23.48;;;52.10;2227.20;;;;;;4840976;29;20112;-70
2021/04/05 03:41:31;;;;;;;35.67;20.55;;;52.10;2227.20;;;;;;4836605;29;20029;-70
2021/04/05 03:44:09;;;;;;;29.73;18.15;;;76.80;2227.20;;;;;;4841221;29;20097;-70
2021/04/05 03:46:40;;;;;;;28.38;18.48;;;76.80;2227.20;;;;;;4840815;29;20026;-71
2021/04/05 03:49:21;;;;;;;32.80;18.05;;;76.90;2227.20;;;;;;4850931;29;20112;-71
2021/04/05 03:52:18;;;;;;;26.92;18.90;;;76.90;2227.20;;;;;;4842467;29;20459;-71
2021/04/05 03:54:59;;;;;;;38.55;19.00;;;77.00;2201.60;;;;;;4824584;29;20058;-71
2021/04/05 03:57:28;;;;;;;30.17;16.27;;;77.00;2201.60;;;;;;4813734;29;20066;-71
2021/04/05 03:59:57;;;;;;;29.27;17.17;;;76.90;2201.60;;;;;;4840688;29;20038;-71
2021/04/05 04:02:31;;;;;;;28.17;17.23;;;77.00;2176.00;;;;;;4839317;29;20075;-71
2021/04/05 04:05:02;;;;;;;31.45;18.27;;;77.00;2201.60;;;;;;4822095;29;20060;-71
2021/04/05 04:07:38;;;;;;;25.75;16.42;;;77.00;2201.60;;;;;;4842633;29;20035;-71
2021/04/05 04:10:09;;;;;;;31.48;17.40;;;77.00;2201.60;;;;;;4840840;29;20018;-70
2021/04/05 04:12:36;;;;;;;35.72;17.35;;;77.00;2227.20;;;;;;4851131;29;20465;-70
2021/04/05 04:15:03;;;;;;;27.75;17.77;;;76.90;2227.20;;;;;;4823311;29;20034;-71
2021/04/05 04:17:33;;;;;;;28.58;17.05;;;76.90;2227.20;;;;;;4852024;29;20512;-70
2021/04/05 04:20:04;;;;;;;23.58;15.98;;;77.00;2227.20;;;;;;4824139;29;20034;-71
2021/04/05 04:22:32;;;;;;;32.35;18.80;;;76.90;2227.20;;;;;;4826509;29;20073;-71
2021/04/05 04:24:58;;;;;;;28.45;18.00;;;76.90;2227.20;;;;;;4843376;29;20543;-72
2021/04/05 04:27:24;;;;;;;31.73;18.73;;;76.90;2201.60;;;;;;4860606;29;20079;-71
2021/04/05 04:29:57;;;;;;;30.02;19.05;;;76.90;2201.60;;;;;;4849816;29;20057;-71
2021/04/05 04:32:24;;;;;;;34.10;19.50;;;76.90;2201.60;;;;;;4835236;29;20022;-71
2021/04/05 04:34:50;;;;;;;32.17;20.67;;;76.90;2201.60;;;;;;4838069;29;20040;-71
2021/04/05 04:37:16;;;;;;;33.33;20.38;;;77.00;2201.60;;;;;;4832784;29;20046;-71
2021/04/05 04:39:43;;;;;;;35.50;20.50;;;77.00;2176.00;;;;;;4854601;29;20468;-71
2021/04/05 04:42:10;;;;;;;32.65;21.38;;;77.00;2176.00;;;;;;4827875;29;20041;-71
2021/04/05 04:44:36;;;;;;;44.65;23.70;;;77.10;2176.00;;;;;;4840771;29;20033;-71
2021/04/05 04:47:02;;;;;;;40.40;23.13;;;77.10;2150.40;;;;;;4844257;29;20491;-71
2021/04/05 04:49:28;;;;;;;53.22;26.85;;;77.20;2150.40;;;;;;4843835;29;20026;-71
2021/04/05 04:51:53;;;;;;;62.75;35.20;;;77.30;2150.40;;;;;;4827246;29;20433;-72
2021/04/05 04:54:19;;;;;;;43.88;24.92;;;77.40;2150.40;;;;;;4827054;29;20034;-72
2021/04/05 04:56:45;;;;;;;40.38;22.27;;;77.40;2150.40;;;;;;4844163;29;20040;-72
2021/04/05 04:59:11;;;;;;;35.95;23.17;;;77.40;2124.80;;;;;;4827385;29;20046;-71
2021/04/05 05:01:40;;;;;;;39.35;20.95;;;77.40;2124.80;;;;;;4852035;29;20128;-71
2021/04/05 05:04:08;;;;;;;35.92;20.45;;;77.50;2124.80;;;;;;4855485;29;20113;-71
2021/04/05 05:06:35;;;;;;;28.23;18.45;;;77.60;2099.20;;;;;;4848980;29;20428;-71
2021/04/05 05:09:02;;;;;;;30.60;16.92;;;77.60;2073.60;;;;;;4857892;29;20022;-71
2021/04/05 05:11:28;;;;;;;25.17;17.45;;;77.70;2022.40;;;;;;4828226;29;20030;-71
2021/04/05 05:13:56;;;;;;;29.48;16.75;;;102.40;2022.40;;;;;;4838494;29;20114;-71
2021/04/05 05:16:24;;;;;;;27.48;16.42;;;102.50;1971.20;;;;;;4852180;29;20125;-71
2021/04/05 05:18:56;;;;;;;27.38;16.15;;;102.60;1971.20;;;;;;4843736;29;20519;-72
2021/04/05 05:21:29;;;;;;;22.90;15.70;;;102.60;1945.60;;;;;;4853794;29;20029;-71
2021/04/05 05:24:02;;;;;;;28.33;17.55;;;102.70;1945.60;;;;;;4844195;29;20014;-71
2021/04/05 05:26:31;;;;;;;30.92;18.42;;;102.80;1971.20;;;;;;4843348;29;20512;-71
2021/04/05 05:29:00;;;;;;;34.45;19.48;;;102.70;1945.60;;;;;;4826579;29;20408;-71
2021/04/05 05:31:26;;;;;;;30.40;17.10;;;102.80;1945.60;;;;;;4843509;29;20085;-71
2021/04/05 05:33:52;;;;;;;36.28;19.17;;;102.80;1945.60;;;;;;4825233;29;20045;-71
2021/04/05 05:36:18;;;;;;;33.65;19.23;;;102.90;1945.60;;;;;;4843392;29;20034;-71
2021/04/05 05:38:47;;;;;;;33.55;20.73;;;103.00;1945.60;;;;;;4826635;29;20542;-72
2021/04/05 05:41:24;;;;;;;33.72;20.40;;;103.00;1920.00;;;;;;4826650;29;20037;-71
2021/04/05 05:44:01;;;;;;;39.85;23.50;;;103.10;1894.40;;;;;;4814063;29;20748;-72
2021/04/05 05:46:37;;;;;;;36.65;20.58;;;103.20;1894.40;;;;;;4849797;29;20025;-72
2021/04/05 05:49:28;;;;;;;41.90;24.38;;;103.30;1868.80;;;;;;4847563;29;20030;-72
2021/04/05 05:52:17;;;;;;;50.95;24.77;;;128.00;1868.80;;;;;;4825760;29;20034;-72
2021/04/05 05:55:06;;;;;;;35.80;23.23;;;128.10;1894.40;;;;;;4749857;30;20052;-72
2021/04/05 05:57:58;;;;;;;39.55;22.33;;;128.20;1894.40;;;;;;4750706;30;20044;-72
2021/04/05 06:00:29;;;;;;;38.17;20.50;;;128.30;1894.40;;;;;;4750360;30;20500;-72
2021/04/05 06:03:31;;;;;;;42.10;24.23;;;128.50;1868.80;;;;;;4747558;30;20047;-71
2021/04/05 06:06:15;;;;;;;45.83;24.10;;;128.50;1843.20;;;;;;4748156;30;20499;-72
2021/04/05 06:09:01;;;;;;;37.78;20.30;;;128.70;1817.60;;;;;;4750260;30;20055;-71
2021/04/05 06:11:53;;;;;;;48.50;25.50;;;128.70;1817.60;;;;;;4734666;30;20132;-70
2021/04/05 06:14:49;;;;;;;29.98;18.58;;;128.80;1792.00;;;;;;4739871;30;20551;-71
2021/04/05 06:17:38;;;;;;;30.75;16.42;;;153.70;1817.60;;;;;;4722372;30;20523;-71
2021/04/05 06:20:22;;;;;;;28.80;16.83;;;154.10;1817.60;;;;;;4747691;30;20138;-71
2021/04/05 06:23:06;;;;;;;25.52;16.55;;;154.30;1740.80;;;;;;4750077;30;20111;-71
2021/04/05 06:26:06;;;;;;;23.17;15.27;;;154.40;1715.20;;;;;;4744130;30;20051;-71
2021/04/05 06:28:55;;;;;;;35.50;20.10;;;154.50;1664.00;;;;;;4753239;30;20056;-71
2021/04/05 06:31:48;;;;;;;29.92;17.50;;;179.30;1664.00;;;;;;4776970;29;20037;-71
2021/04/05 06:34:32;;;;;;;29.15;17.65;;;179.30;1689.60;;;;;;4842157;29;20034;-71
2021/04/05 06:37:15;;;;;;;25.33;14.70;;;179.60;1638.40;;;;;;4825070;29;20026;-71
2021/04/05 06:39:46;;;;;;;27.98;17.00;;;179.60;1638.40;;;;;;4823279;29;20384;-71
2021/04/05 06:42:35;;;;;;;192.70;79.32;;;179.80;1664.00;;;;;;4837504;29;20037;-71
2021/04/05 06:45:22;;;;;;;24.38;15.98;;;180.10;1664.00;;;;;;4840613;29;20030;-71
2021/04/05 06:47:51;;;;;;;33.63;18.77;;;204.90;1638.40;;;;;;4815850;29;20455;-72
2021/04/05 06:50:32;;;;;;;41.00;20.67;;;204.90;1612.80;;;;;;4826382;29;21606;-71
2021/04/05 06:53:19;;;;;;;72.40;32.13;;;205.10;1638.40;;;;;;4835727;29;20026;-71
2021/04/05 06:55:51;;;;;;;77.65;38.83;;;205.00;1664.00;;;;;;4820370;29;20042;-71
2021/04/05 06:58:24;;;;;;;156.27;63.03;;;205.10;1664.00;;;;;;4836065;29;20511;-71
2021/04/05 07:01:08;;;;;;;107.80;45.47;;;205.40;1689.60;;;;;;4838491;29;20026;-71
2021/04/05 07:03:57;;;;;;;48.50;27.95;;;205.40;1664.00;;;;;;4820525;29;20489;-71
2021/04/05 07:06:35;;;;;;;24.05;16.38;;;205.40;1689.60;;;;;;4839766;29;20033;-70
2021/04/05 07:09:10;;;;;;;34.33;15.38;;;205.60;1664.00;;;;;;4824950;29;20029;-70
2021/04/05 07:11:53;;;;;;;23.70;16.67;;;230.40;1638.40;;;;;;4841203;29;20033;-70
2021/04/05 07:14:39;;;;;;;23.40;15.07;;;230.40;1638.40;;;;;;4840391;29;20030;-70
2021/04/05 07:17:31;;;;;;;21.00;13.50;;;230.50;1664.00;;;;;;4833501;29;20037;-69
2021/04/05 07:20:02;;;;;;;17.13;13.27;;;230.60;1612.80;;;;;;4767852;29;20416;-70
2021/04/05 07:22:36;;;;;;;15.48;12.30;;;230.80;1536.00;;;;;;4782739;29;20110;-70
2021/04/05 07:25:06;;;;;;;21.38;13.07;;;230.80;1510.40;;;;;;4767809;29;20035;-70
2021/04/05 07:27:59;;;;;;;17.17;11.50;;;231.20;1510.40;;;;;;4782945;29;20059;-70
2021/04/05 07:30:32;;;;;;;13.88;9.90;;;231.30;1433.60;;;;;;4778422;29;20078;-70
2021/04/05 07:33:14;;;;;;;16.48;11.40;;;256.30;1459.20;;;;;;4782691;30;20023;-70
2021/04/05 07:36:30;;;;;;;32.72;13.77;;;256.70;1433.60;;;;;;4783023;29;20242;-70
2021/04/05 07:39:21;;;;;;;18.50;11.10;;;256.70;1331.20;;;;;;4747364;30;20082;-70
2021/04/05 07:42:06;;;;;;;14.27;10.57;;;256.80;1382.40;;;;;;4750037;30;20047;-70
2021/04/05 07:45:02;;;;;;;16.73;11.50;;;281.80;1382.40;;;;;;4732578;30;20040;-70
2021/04/05 07:47:59;;;;;;;21.52;14.75;;;282.10;1356.80;;;;;;4747858;30;20115;-70
2021/04/05 07:50:31;;;;;;;15.73;11.27;;;282.10;1356.80;;;;;;4747685;30;20048;-70
2021/04/05 07:53:02;;;;;;;21.10;11.80;;;282.00;1408.00;;;;;;4747078;30;20028;-71
2021/04/05 07:55:29;;;;;;;22.98;12.20;;;307.20;1331.20;;;;;;4747126;30;20048;-71
2021/04/05 07:58:04;;;;;;;13.30;10.75;;;307.20;1331.20;;;;;;4778338;30;20039;-70
2021/04/05 08:00:39;;;;;;;14.57;11.50;;;307.80;1331.20;;;;;;4783039;29;20136;-70
2021/04/05 08:03:22;;;;;;;15.57;10.45;;;307.50;1280.00;;;;;;4783709;29;20027;-71
2021/04/05 08:05:57;;;;;;;15.18;10.98;;;307.70;1280.00;;;;;;4783832;29;20043;-71
2021/04/05 08:08:34;;;;;;;12.77;9.00;;;307.90;1280.00;;;;;;4770749;30;20127;-71
2021/04/05 08:11:21;;;;;;;13.30;10.23;;;307.60;1280.00;;;;;;4783870;30;20043;-72
2021/04/05 08:14:03;;;;;;;15.45;10.50;;;332.80;1331.20;;;;;;4795859;29;20034;-71
2021/04/05 08:16:49;;;;;;;16.90;10.38;;;333.10;1280.00;;;;;;4840041;29;20053;-72
2021/04/05 08:19:43;;;;;;;14.87;10.40;;;333.30;1305.60;;;;;;4840084;29;20049;-71
2021/04/05 08:22:23;;;;;;;16.52;9.77;;;358.40;1203.20;;;;;;4839134;29;20307;-72
2021/04/05 08:25:31;;;;;;;21.05;12.25;;;358.40;1152.00;;;;;;4840606;29;20070;-72
2021/04/05 08:28:21;;;;;;;16.23;10.55;;;333.70;1228.80;;;;;;4838781;29;20784;-72
2021/04/05 08:31:10;;;;;;;14.30;9.32;;;358.40;1203.20;;;;;;4778622;30;20035;-72
2021/04/05 08:34:00;;;;;;;16.73;9.88;;;333.60;1228.80;;;;;;4782139;30;20033;-72
2021/04/05 08:36:29;;;;;;;11.75;8.38;;;358.40;1152.00;;;;;;4782700;29;20039;-72
2021/04/05 08:39:15;;;;;;;14.73;10.50;;;358.70;1126.40;;;;;;4783453;29;20051;-71
2021/04/05 08:41:49;;;;;;;15.05;11.52;;;359.00;1152.00;;;;;;4781143;30;20040;-72
2021/04/05 08:44:18;;;;;;;12.00;9.93;;;359.20;1152.00;;;;;;4779344;30;20039;-72
2021/04/05 08:46:47;;;;;;;12.30;8.82;;;384.20;1126.40;;;;;;4782588;30;20085;-72
2021/04/05 08:49:19;;;;;;;13.70;10.98;;;384.90;1049.60;;;;;;4782011;29;20498;-72
2021/04/05 08:51:48;;;;;;;12.75;9.65;;;409.60;1100.80;;;;;;4783840;29;20050;-71
2021/04/05 08:54:19;;;;;;;13.32;9.35;;;409.80;1049.60;;;;;;4781850;29;20048;-70
2021/04/05 08:56:51;;;;;;;12.98;9.38;;;410.40;972.80;;;;;;4782140;29;20114;-71
2021/04/05 08:59:28;;;;;;;11.88;8.65;;;435.50;947.20;;;;;;4782223;29;20050;-70
2021/04/05 09:02:20;;;;;;;9.95;7.97;;;435.20;921.60;;;;;;4781183;29;20106;-70
2021/04/05 09:04:49;;;;;;;9.98;7.82;;;435.40;896.00;;;;;;4779377;29;20036;-70
2021/04/05 09:07:29;;;;;;;13.55;9.10;;;436.10;844.80;;;;;;4782911;29;20041;-70
2021/04/05 09:09:58;;;;;;;14.82;9.50;;;461.00;870.40;;;;;;4820531;29;20041;-70
2021/04/05 09:12:26;;;;;;;10.30;8.55;;;461.50;844.80;;;;;;4822058;29;20094;-70
2021/04/05 09:15:22;;;;;;;11.23;8.35;;;461.70;844.80;;;;;;4839949;29;20033;-70
2021/04/05 09:18:06;;;;;;;13.33;8.93;;;461.00;819.20;;;;;;4839083;29;20109;-70
2021/04/05 09:20:54;;;;;;;13.43;10.77;;;436.10;870.40;;;;;;4821876;29;20491;-70
2021/04/05 09:23:31;;;;;;;11.98;9.13;;;461.10;896.00;;;;;;4840630;29;20038;-70
2021/04/05 09:26:06;;;;;;;13.77;10.68;;;461.70;844.80;;;;;;4840221;29;20515;-70
2021/04/05 09:28:53;;;;;;;14.05;9.23;;;486.70;819.20;;;;;;4821251;29;20050;-70
2021/04/05 09:31:30;;;;;;;17.35;9.85;;;486.50;793.60;;;;;;4800793;29;20524;-70
2021/04/05 09:34:15;;;;;;;10.60;8.32;;;486.40;819.20;;;;;;4821660;29;20034;-70
2021/04/05 09:37:08;;;;;;;13.75;8.40;;;461.60;819.20;;;;;;4825510;29;20055;-71
2021/04/05 09:40:19;;;;;;;10.68;8.18;;;487.20;768.00;;;;;;4806895;29;20034;-71
2021/04/05 09:43:06;;;;;;;9.57;7.03;;;512.00;742.40;;;;;;4731313;30;20134;-71
2021/04/05 09:45:44;;;;;;;9.40;6.82;;;512.40;716.80;;;;;;4732454;30;20118;-70
2021/04/05 09:48:27;;;;;;;8.05;6.72;;;512.30;716.80;;;;;;4734046;30;20071;-71
2021/04/05 09:51:02;;;;;;;8.93;6.85;;;512.70;665.60;;;;;;4733171;30;20090;-70
2021/04/05 09:53:49;;;;;;;10.05;7.30;;;487.10;691.20;;;;;;4734208;30;20040;-70
2021/04/05 09:56:20;;;;;;;8.98;7.57;;;512.60;691.20;;;;;;4733917;30;20422;-70
2021/04/05 09:59:00;;;;;;;9.55;7.68;;;487.10;716.80;;;;;;4718388;30;20128;-70
2021/04/05 10:01:29;;;;;;;11.18;8.10;;;512.20;742.40;;;;;;4733796;30;20068;-70
2021/04/05 10:04:07;;;;;;;16.52;8.95;;;486.90;716.80;;;;;;4731207;30;20078;-70
2021/04/05 10:06:35;;;;;;;13.35;8.43;;;436.00;793.60;;;;;;4733407;30;20047;-71
2021/04/05 10:09:04;;;;;;;22.98;8.45;;;461.50;793.60;;;;;;4730335;30;20047;-70
2021/04/05 10:11:33;;;;;;;12.48;8.90;;;461.50;768.00;;;;;;4732242;30;20033;-71
2021/04/05 10:14:14;;;;;;;15.25;9.90;;;461.20;793.60;;;;;;4793886;29;20041;-70
2021/04/05 10:16:45;;;;;;;9.00;7.57;;;487.20;742.40;;;;;;4822364;29;20404;-70
2021/04/05 10:19:13;;;;;;;12.43;7.35;;;487.20;665.60;;;;;;4821201;29;20030;-70
2021/04/05 10:21:47;;;;;;;10.52;7.68;;;512.20;691.20;;;;;;4823521;29;20027;-70
2021/04/05 10:24:14;;;;;;;8.75;7.13;;;512.10;691.20;;;;;;4823165;29;20049;-70
2021/04/05 10:26:41;;;;;;;9.25;7.47;;;512.50;665.60;;;;;;4827250;29;20621;-70
2021/04/05 10:29:14;;;;;;;12.85;8.52;;;512.10;691.20;;;;;;4840076;29;20042;-70
2021/04/05 10:31:43;;;;;;;10.07;7.90;;;487.30;691.20;;;;;;4838352;29;20124;-70
2021/04/05 10:34:11;;;;;;;10.10;7.28;;;537.60;691.20;;;;;;4840654;29;20045;-70
2021/04/05 10:36:45;;;;;;;9.30;7.85;;;563.20;716.80;;;;;;4838679;29;20499;-69
2021/04/05 10:39:12;;;;;;;10.10;7.65;;;563.70;691.20;;;;;;4838336;29;20021;-71
2021/04/05 10:41:48;;;;;;;8.43;6.25;;;538.50;691.20;;;;;;4839025;29;20030;-70
2021/04/05 10:44:15;;;;;;;12.45;7.68;;;538.30;665.60;;;;;;4840104;29;20026;-70
2021/04/05 10:46:45;;;;;;;9.65;6.68;;;563.80;665.60;;;;;;4840554;29;20025;-71
2021/04/05 10:49:14;;;;;;;9.63;7.13;;;537.90;691.20;;;;;;4841306;29;20032;-71
2021/04/05 10:51:49;;;;;;;12.65;6.93;;;486.90;742.40;;;;;;4839495;29;20026;-71
2021/04/05 10:54:33;;;;;;;10.40;7.28;;;486.70;691.20;;;;;;4840114;29;20029;-71
2021/04/05 10:57:10;;;;;;;10.07;8.27;;;486.90;691.20;;;;;;4838281;29;20388;-71
2021/04/05 10:59:55;;;;;;;7.47;6.13;;;537.60;716.80;;;;;;4837319;29;20033;-71
2021/04/05 11:02:36;;;;;;;9.93;7.50;;;512.90;640.00;;;;;;4837928;29;20097;-72
2021/04/05 11:05:09;;;;;;;13.55;8.52;;;512.10;691.20;;;;;;4837366;29;20033;-71
2021/04/05 11:07:36;;;;;;;10.45;7.43;;;487.00;691.20;;;;;;4837685;29;20022;-71
2021/04/05 11:10:07;;;;;;;10.95;7.80;;;512.30;665.60;;;;;;4837863;29;20030;-71
2021/04/05 11:12:42;;;;;;;9.75;7.80;;;538.00;716.80;;;;;;4818839;29;20034;-71
2021/04/05 11:15:11;;;;;;;14.80;8.13;;;563.50;691.20;;;;;;4835727;29;20123;-71
2021/04/05 11:17:41;;;;;;;7.50;6.60;;;588.80;665.60;;;;;;4837476;29;20888;-71
2021/04/05 11:20:09;;;;;;;9.13;6.40;;;589.30;640.00;;;;;;4837171;29;20038;-72
2021/04/05 11:22:38;;;;;;;8.18;7.00;;;563.80;640.00;;;;;;4820942;29;20129;-72
2021/04/05 11:25:12;;;;;;;11.13;7.72;;;563.50;691.20;;;;;;4837046;29;20038;-71
2021/04/05 11:27:46;;;;;;;9.48;7.55;;;563.20;691.20;;;;;;4837276;29;20056;-72
2021/04/05 11:30:22;;;;;;;7.22;6.45;;;537.90;665.60;;;;;;4839153;29;20060;-71
2021/04/05 11:32:51;;;;;;;9.05;7.45;;;563.50;640.00;;;;;;4837640;29;20492;-71
2021/04/05 11:35:20;;;;;;;9.35;7.30;;;564.00;665.60;;;;;;4837297;29;20078;-71
2021/04/05 11:37:48;;;;;;;11.68;7.88;;;563.80;640.00;;;;;;4838580;29;20089;-71
2021/04/05 11:40:19;;;;;;;9.98;8.20;;;563.70;691.20;;;;;;4838042;29;20026;-72
2021/04/05 11:42:48;;;;;;;10.10;8.23;;;588.80;640.00;;;;;;4820367;29;20042;-71
2021/04/05 11:45:19;;;;;;;14.10;9.38;;;589.30;640.00;;;;;;4819676;29;20034;-71
2021/04/05 11:47:51;;;;;;;9.35;7.93;;;589.30;640.00;;;;;;4818857;29;20038;-71
2021/04/05 11:50:27;;;;;;;9.52;7.75;;;589.60;588.80;;;;;;4836553;29;20026;-71
2021/04/05 11:53:09;;;;;;;14.60;9.60;;;589.20;640.00;;;;;;4836400;29;20014;-72
2021/04/05 11:55:39;;;;;;;12.52;8.27;;;614.60;614.40;;;;;;4837820;29;20438;-71
2021/04/05 11:58:11;;;;;;;12.45;8.50;;;614.60;588.80;;;;;;4837354;29;20038;-72
2021/04/05 12:00:47;;;;;;;13.73;8.93;;;563.90;665.60;;;;;;4820756;29;20038;-71
2021/04/05 12:03:31;;;;;;;9.60;8.18;;;563.30;691.20;;;;;;4821044;29;20392;-71
2021/04/05 12:06:18;;;;;;;9.02;8.13;;;563.70;691.20;;;;;;4837754;29;20030;-71
2021/04/05 12:09:02;;;;;;;14.23;8.60;;;537.70;691.20;;;;;;4838182;29;20022;-71
2021/04/05 12:11:41;;;;;;;9.48;8.05;;;563.70;665.60;;;;;;4838080;29;20070;-73
2021/04/05 12:14:11;;;;;;;10.98;8.95;;;564.00;665.60;;;;;;4837418;29;20510;-72
2021/04/05 12:16:40;;;;;;;19.17;9.95;;;538.30;665.60;;;;;;4837605;29;20030;-72
2021/04/05 12:19:06;;;;;;;9.90;7.93;;;563.40;716.80;;;;;;4838830;29;20022;-72
2021/04/05 12:21:34;;;;;;;12.88;8.45;;;563.40;665.60;;;;;;4837762;29;20068;-72
2021/04/05 12:24:02;;;;;;;10.63;8.55;;;589.30;640.00;;;;;;4838068;29;20055;-72
2021/04/05 12:26:30;;;;;;;11.90;8.60;;;589.30;640.00;;;;;;4836374;29;20050;-71
2021/04/05 12:29:03;;;;;;;11.32;7.97;;;563.30;691.20;;;;;;4820616;29;20046;-72
2021/04/05 12:31:30;;;;;;;12.90;9.73;;;589.40;640.00;;;;;;4838932;29;20030;-72
2021/04/05 12:34:06;;;;;;;11.98;8.88;;;589.20;640.00;;;;;;4821077;29;20060;-71
2021/04/05 12:36:34;;;;;;;10.80;9.40;;;563.50;691.20;;;;;;4839354;29;20388;-72
2021/04/05 12:39:02;;;;;;;12.65;9.30;;;563.40;691.20;;;;;;4837916;29;20026;-70
2021/04/05 12:41:34;;;;;;;10.38;8.90;;;588.80;691.20;;;;;;4819826;29;20026;-70
2021/04/05 12:44:03;;;;;;;11.05;8.98;;;589.40;665.60;;;;;;4838339;29;20038;-70